sensor_id;sensor_type;location;lat;lon;timestamp;P1;durP1;ratioP1;P2;durP2;ratioP2
18102;SDS011;9178;51.120;6.192;2023-09-19T00:00:05;11.13;;;2.80;;
18102;SDS011;9178;51.120;6.192;2023-09-19T00:02:35;8.00;;;2.00;;
18102;SDS011;9178;51.120;6.192;2023-09-19T00:05:04;12.53;;;2.53;;
18102;SDS011;9178;51.120;6.192;2023-09-19T00:07:32;7.90;;;2.00;;
18102;SDS011;9178;51.120;6.192;2023-09-19T00:10:01;10.67;;;2.80;;
18102;SDS011;9178;51.120;6.192;2023-09-19T00:12:32;9.50;;;2.53;;
18102;SDS011;9178;51.120;6.192;2023-09-19T00:14:59;9.27;;;1.97;;
18102;SDS011;9178;51.120;6.192;2023-09-19T00:17:40;11.13;;;2.07;;
18102;SDS011;9178;51.120;6.192;2023-09-19T00:20:08;10.57;;;2.03;;
18102;SDS011;9178;51.120;6.192;2023-09-19T00:22:38;9.33;;;1.90;;
18102;SDS011;9178;51.120;6.192;2023-09-19T00:25:06;7.47;;;1.90;;
18102;SDS011;9178;51.120;6.192;2023-09-19T00:27:34;6.27;;;2.40;;
18102;SDS011;9178;51.120;6.192;2023-09-19T00:30:04;7.40;;;1.83;;
18102;SDS011;9178;51.120;6.192;2023-09-19T00:32:34;6.73;;;2.10;;
18102;SDS011;9178;51.120;6.192;2023-09-19T00:35:04;8.10;;;2.30;;
18102;SDS011;9178;51.120;6.192;2023-09-19T00:37:33;9.07;;;1.90;;
18102;SDS011;9178;51.120;6.192;2023-09-19T00:40:00;7.77;;;2.20;;
18102;SDS011;9178;51.120;6.192;2023-09-19T00:42:28;9.37;;;2.20;;
18102;SDS011;9178;51.120;6.192;2023-09-19T00:44:55;5.53;;;2.40;;
18102;SDS011;9178;51.120;6.192;2023-09-19T00:47:22;13.13;;;2.37;;
18102;SDS011;9178;51.120;6.192;2023-09-19T00:49:50;11.87;;;2.60;;
18102;SDS011;9178;51.120;6.192;2023-09-19T00:52:20;6.70;;;2.53;;
18102;SDS011;9178;51.120;6.192;2023-09-19T00:54:48;5.30;;;1.80;;
18102;SDS011;9178;51.120;6.192;2023-09-19T00:57:15;5.30;;;1.83;;
18102;SDS011;9178;51.120;6.192;2023-09-19T00:59:44;10.67;;;2.10;;
18102;SDS011;9178;51.120;6.192;2023-09-19T01:02:13;7.00;;;2.10;;
18102;SDS011;9178;51.120;6.192;2023-09-19T01:04:46;9.10;;;2.00;;
18102;SDS011;9178;51.120;6.192;2023-09-19T01:07:13;13.67;;;2.63;;
18102;SDS011;9178;51.120;6.192;2023-09-19T01:09:42;11.20;;;2.00;;
18102;SDS011;9178;51.120;6.192;2023-09-19T01:12:11;10.97;;;2.60;;
18102;SDS011;9178;51.120;6.192;2023-09-19T01:14:44;10.07;;;2.43;;
18102;SDS011;9178;51.120;6.192;2023-09-19T01:17:24;10.23;;;2.27;;
18102;SDS011;9178;51.120;6.192;2023-09-19T01:20:10;10.63;;;2.10;;
18102;SDS011;9178;51.120;6.192;2023-09-19T01:22:46;8.97;;;2.37;;
18102;SDS011;9178;51.120;6.192;2023-09-19T01:28:34;8.30;;;2.77;;
18102;SDS011;9178;51.120;6.192;2023-09-19T01:31:13;5.87;;;1.80;;
18102;SDS011;9178;51.120;6.192;2023-09-19T01:33:57;11.17;;;2.20;;
18102;SDS011;9178;51.120;6.192;2023-09-19T01:36:29;7.97;;;2.30;;
18102;SDS011;9178;51.120;6.192;2023-09-19T01:39:01;8.67;;;2.00;;
18102;SDS011;9178;51.120;6.192;2023-09-19T01:41:35;6.90;;;2.10;;
18102;SDS011;9178;51.120;6.192;2023-09-19T01:44:24;7.43;;;2.33;;
18102;SDS011;9178;51.120;6.192;2023-09-19T01:46:58;7.80;;;2.23;;
18102;SDS011;9178;51.120;6.192;2023-09-19T01:49:32;8.10;;;2.43;;
18102;SDS011;9178;51.120;6.192;2023-09-19T01:52:05;6.80;;;1.83;;
18102;SDS011;9178;51.120;6.192;2023-09-19T01:54:40;11.43;;;2.30;;
18102;SDS011;9178;51.120;6.192;2023-09-19T01:57:19;9.17;;;2.03;;
18102;SDS011;9178;51.120;6.192;2023-09-19T01:59:54;7.07;;;2.00;;
18102;SDS011;9178;51.120;6.192;2023-09-19T02:02:32;10.80;;;2.20;;
18102;SDS011;9178;51.120;6.192;2023-09-19T02:05:01;7.53;;;1.70;;
18102;SDS011;9178;51.120;6.192;2023-09-19T02:07:29;8.90;;;1.90;;
18102;SDS011;9178;51.120;6.192;2023-09-19T02:09:57;6.97;;;2.00;;
18102;SDS011;9178;51.120;6.192;2023-09-19T02:12:25;9.17;;;1.93;;
18102;SDS011;9178;51.120;6.192;2023-09-19T02:14:52;7.60;;;1.87;;
18102;SDS011;9178;51.120;6.192;2023-09-19T02:17:21;6.17;;;2.00;;
18102;SDS011;9178;51.120;6.192;2023-09-19T02:19:53;8.17;;;1.77;;
18102;SDS011;9178;51.120;6.192;2023-09-19T02:22:21;7.50;;;2.10;;
18102;SDS011;9178;51.120;6.192;2023-09-19T02:24:49;8.80;;;1.90;;
18102;SDS011;9178;51.120;6.192;2023-09-19T02:27:19;6.33;;;1.70;;
18102;SDS011;9178;51.120;6.192;2023-09-19T02:29:46;7.53;;;2.00;;
18102;SDS011;9178;51.120;6.192;2023-09-19T02:32:15;7.97;;;1.90;;
18102;SDS011;9178;51.120;6.192;2023-09-19T02:34:43;10.00;;;2.20;;
18102;SDS011;9178;51.120;6.192;2023-09-19T02:37:12;9.33;;;1.90;;
18102;SDS011;9178;51.120;6.192;2023-09-19T02:39:41;10.13;;;2.17;;
18102;SDS011;9178;51.120;6.192;2023-09-19T02:42:08;9.57;;;1.67;;
18102;SDS011;9178;51.120;6.192;2023-09-19T02:44:35;7.60;;;2.13;;
18102;SDS011;9178;51.120;6.192;2023-09-19T02:47:03;9.07;;;2.23;;
18102;SDS011;9178;51.120;6.192;2023-09-19T02:49:30;10.73;;;2.07;;
18102;SDS011;9178;51.120;6.192;2023-09-19T02:51:57;6.50;;;1.90;;
18102;SDS011;9178;51.120;6.192;2023-09-19T02:54:26;8.20;;;2.13;;
18102;SDS011;9178;51.120;6.192;2023-09-19T02:56:53;12.63;;;2.57;;
18102;SDS011;9178;51.120;6.192;2023-09-19T02:59:21;5.17;;;2.20;;
18102;SDS011;9178;51.120;6.192;2023-09-19T03:01:50;8.23;;;2.10;;
18102;SDS011;9178;51.120;6.192;2023-09-19T03:04:19;6.77;;;2.20;;
18102;SDS011;9178;51.120;6.192;2023-09-19T03:06:46;8.50;;;1.90;;
18102;SDS011;9178;51.120;6.192;2023-09-19T03:09:16;8.20;;;1.77;;
18102;SDS011;9178;51.120;6.192;2023-09-19T03:11:45;8.00;;;2.23;;
18102;SDS011;9178;51.120;6.192;2023-09-19T03:14:13;10.93;;;2.53;;
18102;SDS011;9178;51.120;6.192;2023-09-19T03:16:41;7.03;;;2.17;;
18102;SDS011;9178;51.120;6.192;2023-09-19T03:19:09;8.33;;;2.57;;
18102;SDS011;9178;51.120;6.192;2023-09-19T03:21:36;6.40;;;1.93;;
18102;SDS011;9178;51.120;6.192;2023-09-19T03:24:05;10.70;;;2.20;;
18102;SDS011;9178;51.120;6.192;2023-09-19T03:26:32;5.47;;;1.70;;
18102;SDS011;9178;51.120;6.192;2023-09-19T03:29:02;11.00;;;2.63;;
18102;SDS011;9178;51.120;6.192;2023-09-19T03:31:33;11.23;;;2.30;;
18102;SDS011;9178;51.120;6.192;2023-09-19T03:34:01;10.23;;;2.70;;
18102;SDS011;9178;51.120;6.192;2023-09-19T03:36:29;11.30;;;2.37;;
18102;SDS011;9178;51.120;6.192;2023-09-19T03:38:56;11.10;;;3.10;;
18102;SDS011;9178;51.120;6.192;2023-09-19T03:41:24;9.83;;;2.17;;
18102;SDS011;9178;51.120;6.192;2023-09-19T03:43:51;8.73;;;2.40;;
18102;SDS011;9178;51.120;6.192;2023-09-19T03:46:19;12.87;;;2.40;;
18102;SDS011;9178;51.120;6.192;2023-09-19T03:48:46;6.37;;;1.77;;
18102;SDS011;9178;51.120;6.192;2023-09-19T03:51:13;8.73;;;2.30;;
18102;SDS011;9178;51.120;6.192;2023-09-19T03:53:40;10.43;;;2.10;;
18102;SDS011;9178;51.120;6.192;2023-09-19T03:56:07;6.63;;;2.00;;
18102;SDS011;9178;51.120;6.192;2023-09-19T03:58:35;9.17;;;2.50;;
18102;SDS011;9178;51.120;6.192;2023-09-19T04:01:04;8.70;;;2.20;;
18102;SDS011;9178;51.120;6.192;2023-09-19T04:03:33;9.37;;;2.43;;
18102;SDS011;9178;51.120;6.192;2023-09-19T04:06:11;7.10;;;2.33;;
18102;SDS011;9178;51.120;6.192;2023-09-19T04:08:38;9.17;;;2.23;;
18102;SDS011;9178;51.120;6.192;2023-09-19T04:11:05;9.20;;;2.20;;
18102;SDS011;9178;51.120;6.192;2023-09-19T04:13:32;9.00;;;2.33;;
18102;SDS011;9178;51.120;6.192;2023-09-19T04:15:59;11.77;;;2.43;;
18102;SDS011;9178;51.120;6.192;2023-09-19T04:18:26;9.53;;;2.50;;
18102;SDS011;9178;51.120;6.192;2023-09-19T04:20:57;8.80;;;2.70;;
18102;SDS011;9178;51.120;6.192;2023-09-19T04:23:24;10.63;;;2.37;;
18102;SDS011;9178;51.120;6.192;2023-09-19T04:25:51;9.37;;;1.80;;
18102;SDS011;9178;51.120;6.192;2023-09-19T04:28:18;8.37;;;2.20;;
18102;SDS011;9178;51.120;6.192;2023-09-19T04:30:45;11.10;;;2.10;;
18102;SDS011;9178;51.120;6.192;2023-09-19T04:33:13;7.23;;;2.07;;
18102;SDS011;9178;51.120;6.192;2023-09-19T04:35:48;12.57;;;2.53;;
18102;SDS011;9178;51.120;6.192;2023-09-19T04:38:17;10.40;;;2.50;;
18102;SDS011;9178;51.120;6.192;2023-09-19T04:40:44;9.43;;;2.07;;
18102;SDS011;9178;51.120;6.192;2023-09-19T04:43:11;10.33;;;2.80;;
18102;SDS011;9178;51.120;6.192;2023-09-19T04:45:38;8.03;;;2.50;;
18102;SDS011;9178;51.120;6.192;2023-09-19T04:48:08;9.90;;;2.50;;
18102;SDS011;9178;51.120;6.192;2023-09-19T04:50:36;10.77;;;2.23;;
18102;SDS011;9178;51.120;6.192;2023-09-19T04:53:03;10.93;;;2.77;;
18102;SDS011;9178;51.120;6.192;2023-09-19T04:55:33;9.40;;;2.47;;
18102;SDS011;9178;51.120;6.192;2023-09-19T04:58:01;7.80;;;2.57;;
18102;SDS011;9178;51.120;6.192;2023-09-19T05:00:31;7.87;;;2.50;;
18102;SDS011;9178;51.120;6.192;2023-09-19T05:03:00;10.23;;;2.13;;
18102;SDS011;9178;51.120;6.192;2023-09-19T05:05:29;7.90;;;2.20;;
18102;SDS011;9178;51.120;6.192;2023-09-19T05:07:56;9.23;;;1.93;;
18102;SDS011;9178;51.120;6.192;2023-09-19T05:10:27;11.47;;;2.00;;
18102;SDS011;9178;51.120;6.192;2023-09-19T05:12:56;11.23;;;2.40;;
18102;SDS011;9178;51.120;6.192;2023-09-19T05:15:23;10.23;;;2.10;;
18102;SDS011;9178;51.120;6.192;2023-09-19T05:17:51;9.23;;;1.93;;
18102;SDS011;9178;51.120;6.192;2023-09-19T05:20:20;11.30;;;2.00;;
18102;SDS011;9178;51.120;6.192;2023-09-19T05:22:57;12.80;;;2.60;;
18102;SDS011;9178;51.120;6.192;2023-09-19T05:25:26;13.33;;;2.20;;
18102;SDS011;9178;51.120;6.192;2023-09-19T05:27:56;8.80;;;2.20;;
18102;SDS011;9178;51.120;6.192;2023-09-19T05:30:24;13.60;;;2.47;;
18102;SDS011;9178;51.120;6.192;2023-09-19T05:32:52;10.20;;;2.33;;
18102;SDS011;9178;51.120;6.192;2023-09-19T05:35:20;11.00;;;2.27;;
18102;SDS011;9178;51.120;6.192;2023-09-19T05:37:47;6.40;;;1.90;;
18102;SDS011;9178;51.120;6.192;2023-09-19T05:40:16;8.90;;;1.77;;
18102;SDS011;9178;51.120;6.192;2023-09-19T05:42:43;10.67;;;2.73;;
18102;SDS011;9178;51.120;6.192;2023-09-19T05:45:12;10.63;;;2.27;;
18102;SDS011;9178;51.120;6.192;2023-09-19T05:47:44;5.57;;;1.57;;
18102;SDS011;9178;51.120;6.192;2023-09-19T05:50:11;10.63;;;2.40;;
18102;SDS011;9178;51.120;6.192;2023-09-19T05:52:40;5.73;;;2.23;;
18102;SDS011;9178;51.120;6.192;2023-09-19T05:55:09;7.73;;;2.03;;
18102;SDS011;9178;51.120;6.192;2023-09-19T05:57:36;8.03;;;2.27;;
18102;SDS011;9178;51.120;6.192;2023-09-19T06:00:04;8.03;;;2.10;;
18102;SDS011;9178;51.120;6.192;2023-09-19T06:02:35;11.20;;;2.80;;
18102;SDS011;9178;51.120;6.192;2023-09-19T06:05:03;7.07;;;2.10;;
18102;SDS011;9178;51.120;6.192;2023-09-19T06:07:35;9.60;;;2.37;;
18102;SDS011;9178;51.120;6.192;2023-09-19T06:10:02;7.60;;;1.90;;
18102;SDS011;9178;51.120;6.192;2023-09-19T06:12:32;9.90;;;2.27;;
18102;SDS011;9178;51.120;6.192;2023-09-19T06:15:02;8.53;;;1.97;;
18102;SDS011;9178;51.120;6.192;2023-09-19T06:17:30;9.17;;;2.43;;
18102;SDS011;9178;51.120;6.192;2023-09-19T06:19:58;5.93;;;1.80;;
18102;SDS011;9178;51.120;6.192;2023-09-19T06:22:25;9.33;;;2.00;;
18102;SDS011;9178;51.120;6.192;2023-09-19T06:24:52;10.80;;;2.20;;
18102;SDS011;9178;51.120;6.192;2023-09-19T06:27:19;8.73;;;2.17;;
18102;SDS011;9178;51.120;6.192;2023-09-19T06:29:47;5.13;;;1.83;;
18102;SDS011;9178;51.120;6.192;2023-09-19T06:32:14;7.07;;;1.93;;
18102;SDS011;9178;51.120;6.192;2023-09-19T06:34:41;7.00;;;1.70;;
18102;SDS011;9178;51.120;6.192;2023-09-19T06:37:10;8.70;;;2.10;;
18102;SDS011;9178;51.120;6.192;2023-09-19T06:39:37;8.03;;;1.87;;
18102;SDS011;9178;51.120;6.192;2023-09-19T06:42:04;9.13;;;2.10;;
18102;SDS011;9178;51.120;6.192;2023-09-19T06:44:31;7.33;;;2.17;;
18102;SDS011;9178;51.120;6.192;2023-09-19T06:46:58;9.50;;;2.20;;
18102;SDS011;9178;51.120;6.192;2023-09-19T06:49:25;7.30;;;1.73;;
18102;SDS011;9178;51.120;6.192;2023-09-19T06:51:53;8.90;;;2.00;;
18102;SDS011;9178;51.120;6.192;2023-09-19T06:54:23;5.83;;;1.80;;
18102;SDS011;9178;51.120;6.192;2023-09-19T06:56:51;9.87;;;2.17;;
18102;SDS011;9178;51.120;6.192;2023-09-19T06:59:20;9.37;;;2.07;;
18102;SDS011;9178;51.120;6.192;2023-09-19T07:01:47;8.70;;;2.17;;
18102;SDS011;9178;51.120;6.192;2023-09-19T07:04:16;9.27;;;2.00;;
18102;SDS011;9178;51.120;6.192;2023-09-19T07:06:44;7.43;;;1.83;;
18102;SDS011;9178;51.120;6.192;2023-09-19T07:09:16;10.17;;;2.13;;
18102;SDS011;9178;51.120;6.192;2023-09-19T07:11:46;7.40;;;1.83;;
18102;SDS011;9178;51.120;6.192;2023-09-19T07:14:15;13.70;;;2.43;;
18102;SDS011;9178;51.120;6.192;2023-09-19T07:16:43;6.67;;;2.10;;
18102;SDS011;9178;51.120;6.192;2023-09-19T07:19:12;9.20;;;2.57;;
18102;SDS011;9178;51.120;6.192;2023-09-19T07:21:40;7.80;;;1.83;;
18102;SDS011;9178;51.120;6.192;2023-09-19T07:24:07;7.65;;;1.70;;
18102;SDS011;9178;51.120;6.192;2023-09-19T07:26:37;9.57;;;2.33;;
18102;SDS011;9178;51.120;6.192;2023-09-19T07:29:06;6.47;;;1.70;;
18102;SDS011;9178;51.120;6.192;2023-09-19T07:31:34;8.52;;;1.83;;
18102;SDS011;9178;51.120;6.192;2023-09-19T07:34:01;8.13;;;1.95;;
18102;SDS011;9178;51.120;6.192;2023-09-19T07:36:29;9.13;;;1.95;;
18102;SDS011;9178;51.120;6.192;2023-09-19T07:39:02;8.23;;;1.90;;
18102;SDS011;9178;51.120;6.192;2023-09-19T07:41:32;8.73;;;2.65;;
18102;SDS011;9178;51.120;6.192;2023-09-19T07:43:58;6.60;;;1.80;;
18102;SDS011;9178;51.120;6.192;2023-09-19T07:46:28;8.48;;;1.95;;
18102;SDS011;9178;51.120;6.192;2023-09-19T07:49:01;9.73;;;2.05;;
18102;SDS011;9178;51.120;6.192;2023-09-19T07:51:31;9.90;;;2.38;;
18102;SDS011;9178;51.120;6.192;2023-09-19T07:53:59;10.20;;;2.13;;
18102;SDS011;9178;51.120;6.192;2023-09-19T07:56:26;5.72;;;2.08;;
18102;SDS011;9178;51.120;6.192;2023-09-19T07:58:53;7.25;;;2.13;;
18102;SDS011;9178;51.120;6.192;2023-09-19T08:01:26;9.55;;;1.90;;
18102;SDS011;9178;51.120;6.192;2023-09-19T08:03:53;7.28;;;1.90;;
18102;SDS011;9178;51.120;6.192;2023-09-19T08:06:22;5.32;;;1.70;;
18102;SDS011;9178;51.120;6.192;2023-09-19T08:08:50;11.73;;;2.35;;
18102;SDS011;9178;51.120;6.192;2023-09-19T08:11:19;7.28;;;1.88;;
18102;SDS011;9178;51.120;6.192;2023-09-19T08:13:46;8.25;;;1.75;;
18102;SDS011;9178;51.120;6.192;2023-09-19T08:16:14;8.90;;;1.98;;
18102;SDS011;9178;51.120;6.192;2023-09-19T08:18:46;5.10;;;1.67;;
18102;SDS011;9178;51.120;6.192;2023-09-19T08:21:20;7.32;;;1.80;;
18102;SDS011;9178;51.120;6.192;2023-09-19T08:23:46;6.90;;;1.77;;
18102;SDS011;9178;51.120;6.192;2023-09-19T08:26:13;7.55;;;1.90;;
18102;SDS011;9178;51.120;6.192;2023-09-19T08:28:40;7.18;;;1.80;;
18102;SDS011;9178;51.120;6.192;2023-09-19T08:31:08;8.95;;;2.45;;
18102;SDS011;9178;51.120;6.192;2023-09-19T08:33:35;8.55;;;1.90;;
18102;SDS011;9178;51.120;6.192;2023-09-19T08:36:06;5.30;;;1.80;;
18102;SDS011;9178;51.120;6.192;2023-09-19T08:38:34;8.43;;;2.15;;
18102;SDS011;9178;51.120;6.192;2023-09-19T08:41:04;6.60;;;1.70;;
18102;SDS011;9178;51.120;6.192;2023-09-19T08:43:41;6.85;;;1.95;;
18102;SDS011;9178;51.120;6.192;2023-09-19T08:46:09;5.07;;;1.70;;
18102;SDS011;9178;51.120;6.192;2023-09-19T08:48:39;7.28;;;1.90;;
18102;SDS011;9178;51.120;6.192;2023-09-19T08:51:16;5.07;;;1.77;;
18102;SDS011;9178;51.120;6.192;2023-09-19T08:53:50;5.38;;;1.70;;
18102;SDS011;9178;51.120;6.192;2023-09-19T08:56:18;6.05;;;2.10;;
18102;SDS011;9178;51.120;6.192;2023-09-19T08:58:48;11.40;;;2.10;;
18102;SDS011;9178;51.120;6.192;2023-09-19T09:01:18;6.03;;;1.70;;
18102;SDS011;9178;51.120;6.192;2023-09-19T09:03:49;5.55;;;1.88;;
18102;SDS011;9178;51.120;6.192;2023-09-19T09:06:20;8.13;;;2.83;;
18102;SDS011;9178;51.120;6.192;2023-09-19T09:08:48;6.55;;;1.60;;
18102;SDS011;9178;51.120;6.192;2023-09-19T09:11:17;9.93;;;2.08;;
18102;SDS011;9178;51.120;6.192;2023-09-19T09:13:45;8.23;;;2.00;;
18102;SDS011;9178;51.120;6.192;2023-09-19T09:16:11;7.55;;;1.65;;
18102;SDS011;9178;51.120;6.192;2023-09-19T09:18:42;5.00;;;1.75;;
18102;SDS011;9178;51.120;6.192;2023-09-19T09:21:12;10.00;;;2.72;;
18102;SDS011;9178;51.120;6.192;2023-09-19T09:23:42;9.00;;;1.80;;
18102;SDS011;9178;51.120;6.192;2023-09-19T09:26:09;6.22;;;1.42;;
18102;SDS011;9178;51.120;6.192;2023-09-19T09:28:38;6.85;;;2.25;;
18102;SDS011;9178;51.120;6.192;2023-09-19T09:31:15;5.47;;;1.92;;
18102;SDS011;9178;51.120;6.192;2023-09-19T09:33:54;8.93;;;2.17;;
18102;SDS011;9178;51.120;6.192;2023-09-19T09:36:33;6.75;;;2.20;;
18102;SDS011;9178;51.120;6.192;2023-09-19T09:39:03;5.82;;;1.60;;
18102;SDS011;9178;51.120;6.192;2023-09-19T09:41:41;8.68;;;1.95;;
18102;SDS011;9178;51.120;6.192;2023-09-19T09:44:14;6.00;;;1.98;;
18102;SDS011;9178;51.120;6.192;2023-09-19T09:46:43;6.95;;;2.13;;
18102;SDS011;9178;51.120;6.192;2023-09-19T09:49:41;7.75;;;1.65;;
18102;SDS011;9178;51.120;6.192;2023-09-19T09:52:19;6.53;;;1.80;;
18102;SDS011;9178;51.120;6.192;2023-09-19T09:54:59;7.75;;;1.85;;
18102;SDS011;9178;51.120;6.192;2023-09-19T09:57:30;5.68;;;1.60;;
18102;SDS011;9178;51.120;6.192;2023-09-19T09:59:59;5.88;;;1.60;;
18102;SDS011;9178;51.120;6.192;2023-09-19T10:02:41;7.22;;;2.00;;
18102;SDS011;9178;51.120;6.192;2023-09-19T10:05:12;6.35;;;1.85;;
18102;SDS011;9178;51.120;6.192;2023-09-19T10:07:46;6.82;;;1.67;;
18102;SDS011;9178;51.120;6.192;2023-09-19T10:10:31;8.43;;;2.10;;
18102;SDS011;9178;51.120;6.192;2023-09-19T10:13:09;4.55;;;1.90;;
18102;SDS011;9178;51.120;6.192;2023-09-19T10:15:40;9.38;;;2.20;;
18102;SDS011;9178;51.120;6.192;2023-09-19T10:18:11;6.22;;;1.90;;
18102;SDS011;9178;51.120;6.192;2023-09-19T10:20:43;6.43;;;1.60;;
18102;SDS011;9178;51.120;6.192;2023-09-19T10:23:12;6.97;;;1.70;;
18102;SDS011;9178;51.120;6.192;2023-09-19T10:25:42;8.75;;;2.08;;
18102;SDS011;9178;51.120;6.192;2023-09-19T10:28:12;5.60;;;1.63;;
18102;SDS011;9178;51.120;6.192;2023-09-19T10:30:41;7.10;;;2.05;;
18102;SDS011;9178;51.120;6.192;2023-09-19T10:33:10;7.20;;;2.00;;
18102;SDS011;9178;51.120;6.192;2023-09-19T10:35:42;7.78;;;1.73;;
18102;SDS011;9178;51.120;6.192;2023-09-19T10:38:10;5.25;;;1.58;;
18102;SDS011;9178;51.120;6.192;2023-09-19T10:40:38;11.15;;;2.15;;
18102;SDS011;9178;51.120;6.192;2023-09-19T10:43:11;5.32;;;1.75;;
18102;SDS011;9178;51.120;6.192;2023-09-19T10:45:44;5.93;;;1.88;;
18102;SDS011;9178;51.120;6.192;2023-09-19T10:48:14;5.03;;;1.77;;
18102;SDS011;9178;51.120;6.192;2023-09-19T10:50:46;6.43;;;1.83;;
18102;SDS011;9178;51.120;6.192;2023-09-19T10:53:17;5.50;;;1.70;;
18102;SDS011;9178;51.120;6.192;2023-09-19T10:55:48;3.92;;;1.52;;
18102;SDS011;9178;51.120;6.192;2023-09-19T10:58:30;5.95;;;1.63;;
18102;SDS011;9178;51.120;6.192;2023-09-19T11:01:04;7.40;;;1.85;;
18102;SDS011;9178;51.120;6.192;2023-09-19T11:03:32;6.40;;;1.40;;
18102;SDS011;9178;51.120;6.192;2023-09-19T11:06:02;4.47;;;1.80;;
18102;SDS011;9178;51.120;6.192;2023-09-19T11:08:30;6.30;;;1.70;;
18102;SDS011;9178;51.120;6.192;2023-09-19T11:14:28;5.55;;;1.55;;
18102;SDS011;9178;51.120;6.192;2023-09-19T11:23:19;3.72;;;1.40;;
18102;SDS011;9178;51.120;6.192;2023-09-19T11:25:56;5.57;;;1.90;;
18102;SDS011;9178;51.120;6.192;2023-09-19T11:28:28;5.38;;;2.00;;
18102;SDS011;9178;51.120;6.192;2023-09-19T11:30:57;5.50;;;1.67;;
18102;SDS011;9178;51.120;6.192;2023-09-19T11:33:27;6.50;;;1.70;;
18102;SDS011;9178;51.120;6.192;2023-09-19T11:36:02;6.10;;;2.00;;
18102;SDS011;9178;51.120;6.192;2023-09-19T11:41:37;5.75;;;2.10;;
18102;SDS011;9178;51.120;6.192;2023-09-19T11:47:05;3.80;;;1.33;;
18102;SDS011;9178;51.120;6.192;2023-09-19T11:49:38;4.65;;;1.40;;
18102;SDS011;9178;51.120;6.192;2023-09-19T11:52:08;5.38;;;2.20;;
18102;SDS011;9178;51.120;6.192;2023-09-19T11:54:36;8.77;;;1.73;;
18102;SDS011;9178;51.120;6.192;2023-09-19T11:57:06;7.72;;;1.45;;
18102;SDS011;9178;51.120;6.192;2023-09-19T11:59:38;6.97;;;1.80;;
18102;SDS011;9178;51.120;6.192;2023-09-19T12:02:07;3.25;;;1.40;;
18102;SDS011;9178;51.120;6.192;2023-09-19T12:04:37;5.07;;;1.33;;
18102;SDS011;9178;51.120;6.192;2023-09-19T12:07:06;6.60;;;2.03;;
18102;SDS011;9178;51.120;6.192;2023-09-19T12:09:40;3.65;;;1.33;;
18102;SDS011;9178;51.120;6.192;2023-09-19T12:12:09;5.78;;;1.58;;
18102;SDS011;9178;51.120;6.192;2023-09-19T12:14:38;4.28;;;1.30;;
18102;SDS011;9178;51.120;6.192;2023-09-19T12:17:09;5.13;;;1.35;;
18102;SDS011;9178;51.120;6.192;2023-09-19T12:19:38;3.40;;;1.20;;
18102;SDS011;9178;51.120;6.192;2023-09-19T12:22:05;4.90;;;1.15;;
18102;SDS011;9178;51.120;6.192;2023-09-19T12:24:34;3.88;;;1.35;;
18102;SDS011;9178;51.120;6.192;2023-09-19T12:27:09;3.78;;;1.30;;
18102;SDS011;9178;51.120;6.192;2023-09-19T12:29:43;4.70;;;1.17;;
18102;SDS011;9178;51.120;6.192;2023-09-19T12:32:15;5.88;;;1.35;;
18102;SDS011;9178;51.120;6.192;2023-09-19T12:34:52;3.97;;;1.50;;
18102;SDS011;9178;51.120;6.192;2023-09-19T12:37:19;2.83;;;1.00;;
18102;SDS011;9178;51.120;6.192;2023-09-19T12:39:52;3.67;;;1.40;;
18102;SDS011;9178;51.120;6.192;2023-09-19T12:42:21;3.90;;;0.82;;
18102;SDS011;9178;51.120;6.192;2023-09-19T12:44:49;4.18;;;1.10;;
18102;SDS011;9178;51.120;6.192;2023-09-19T12:47:22;2.50;;;0.93;;
18102;SDS011;9178;51.120;6.192;2023-09-19T12:50:05;3.28;;;1.02;;
18102;SDS011;9178;51.120;6.192;2023-09-19T12:52:40;2.67;;;1.20;;
18102;SDS011;9178;51.120;6.192;2023-09-19T12:55:18;5.47;;;1.23;;
18102;SDS011;9178;51.120;6.192;2023-09-19T12:57:54;6.15;;;1.20;;
18102;SDS011;9178;51.120;6.192;2023-09-19T13:00:30;2.70;;;0.90;;
18102;SDS011;9178;51.120;6.192;2023-09-19T13:03:17;3.33;;;1.20;;
18102;SDS011;9178;51.120;6.192;2023-09-19T13:05:50;3.85;;;0.90;;
18102;SDS011;9178;51.120;6.192;2023-09-19T13:08:23;2.78;;;0.90;;
18102;SDS011;9178;51.120;6.192;2023-09-19T13:11:03;2.38;;;0.90;;
18102;SDS011;9178;51.120;6.192;2023-09-19T13:13:36;2.38;;;0.88;;
18102;SDS011;9178;51.120;6.192;2023-09-19T13:16:09;2.45;;;0.77;;
18102;SDS011;9178;51.120;6.192;2023-09-19T13:18:45;2.85;;;0.90;;
18102;SDS011;9178;51.120;6.192;2023-09-19T13:21:15;3.63;;;1.08;;
18102;SDS011;9178;51.120;6.192;2023-09-19T13:23:51;1.77;;;0.63;;
18102;SDS011;9178;51.120;6.192;2023-09-19T13:26:19;3.70;;;0.80;;
18102;SDS011;9178;51.120;6.192;2023-09-19T13:28:53;2.20;;;0.85;;
18102;SDS011;9178;51.120;6.192;2023-09-19T13:31:20;1.85;;;0.88;;
18102;SDS011;9178;51.120;6.192;2023-09-19T13:33:49;2.22;;;0.63;;
18102;SDS011;9178;51.120;6.192;2023-09-19T13:36:17;1.35;;;0.55;;
18102;SDS011;9178;51.120;6.192;2023-09-19T13:38:44;2.40;;;0.68;;
18102;SDS011;9178;51.120;6.192;2023-09-19T13:41:13;4.85;;;1.13;;
18102;SDS011;9178;51.120;6.192;2023-09-19T13:43:41;3.17;;;0.80;;
18102;SDS011;9178;51.120;6.192;2023-09-19T13:46:13;3.08;;;0.95;;
18102;SDS011;9178;51.120;6.192;2023-09-19T13:48:41;7.35;;;0.85;;
18102;SDS011;9178;51.120;6.192;2023-09-19T13:51:09;2.55;;;0.68;;
18102;SDS011;9178;51.120;6.192;2023-09-19T13:53:36;2.72;;;0.73;;
18102;SDS011;9178;51.120;6.192;2023-09-19T13:56:06;1.27;;;0.73;;
18102;SDS011;9178;51.120;6.192;2023-09-19T13:58:34;2.85;;;0.70;;
18102;SDS011;9178;51.120;6.192;2023-09-19T14:01:01;2.88;;;1.05;;
18102;SDS011;9178;51.120;6.192;2023-09-19T14:03:28;1.67;;;0.50;;
18102;SDS011;9178;51.120;6.192;2023-09-19T14:05:55;2.28;;;0.68;;
18102;SDS011;9178;51.120;6.192;2023-09-19T14:08:24;1.77;;;0.80;;
18102;SDS011;9178;51.120;6.192;2023-09-19T14:10:51;3.40;;;0.93;;
18102;SDS011;9178;51.120;6.192;2023-09-19T14:13:18;2.08;;;0.90;;
18102;SDS011;9178;51.120;6.192;2023-09-19T14:15:45;2.05;;;0.90;;
18102;SDS011;9178;51.120;6.192;2023-09-19T14:18:13;2.85;;;0.80;;
18102;SDS011;9178;51.120;6.192;2023-09-19T14:20:43;3.60;;;0.60;;
18102;SDS011;9178;51.120;6.192;2023-09-19T14:23:10;2.15;;;0.60;;
18102;SDS011;9178;51.120;6.192;2023-09-19T14:25:39;1.17;;;0.60;;
18102;SDS011;9178;51.120;6.192;2023-09-19T14:28:06;3.20;;;0.98;;
18102;SDS011;9178;51.120;6.192;2023-09-19T14:30:34;2.67;;;0.60;;
18102;SDS011;9178;51.120;6.192;2023-09-19T14:33:02;3.25;;;0.80;;
18102;SDS011;9178;51.120;6.192;2023-09-19T14:35:29;1.55;;;0.65;;
18102;SDS011;9178;51.120;6.192;2023-09-19T14:37:56;4.82;;;0.90;;
18102;SDS011;9178;51.120;6.192;2023-09-19T14:40:23;2.35;;;0.60;;
18102;SDS011;9178;51.120;6.192;2023-09-19T14:42:53;3.72;;;0.90;;
18102;SDS011;9178;51.120;6.192;2023-09-19T14:45:20;1.58;;;0.70;;
18102;SDS011;9178;51.120;6.192;2023-09-19T14:47:48;1.83;;;0.70;;
18102;SDS011;9178;51.120;6.192;2023-09-19T14:50:17;2.22;;;0.80;;
18102;SDS011;9178;51.120;6.192;2023-09-19T14:52:53;1.88;;;0.90;;
18102;SDS011;9178;51.120;6.192;2023-09-19T14:55:21;3.20;;;0.70;;
18102;SDS011;9178;51.120;6.192;2023-09-19T14:57:54;5.35;;;0.77;;
18102;SDS011;9178;51.120;6.192;2023-09-19T15:00:24;1.42;;;0.70;;
18102;SDS011;9178;51.120;6.192;2023-09-19T15:02:52;1.15;;;0.50;;
18102;SDS011;9178;51.120;6.192;2023-09-19T15:05:21;1.92;;;0.60;;
18102;SDS011;9178;51.120;6.192;2023-09-19T15:07:48;2.53;;;0.80;;
18102;SDS011;9178;51.120;6.192;2023-09-19T15:10:16;2.65;;;0.88;;
18102;SDS011;9178;51.120;6.192;2023-09-19T15:12:43;2.03;;;0.70;;
18102;SDS011;9178;51.120;6.192;2023-09-19T15:15:12;1.85;;;0.70;;
18102;SDS011;9178;51.120;6.192;2023-09-19T15:17:39;4.13;;;1.10;;
18102;SDS011;9178;51.120;6.192;2023-09-19T15:20:08;1.50;;;0.80;;
18102;SDS011;9178;51.120;6.192;2023-09-19T15:22:39;3.03;;;0.80;;
18102;SDS011;9178;51.120;6.192;2023-09-19T15:25:06;1.25;;;0.60;;
18102;SDS011;9178;51.120;6.192;2023-09-19T15:27:35;2.75;;;0.70;;
18102;SDS011;9178;51.120;6.192;2023-09-19T15:30:03;2.80;;;0.50;;
18102;SDS011;9178;51.120;6.192;2023-09-19T15:32:32;2.00;;;0.60;;
18102;SDS011;9178;51.120;6.192;2023-09-19T15:34:59;2.42;;;0.68;;